Potter Valley, CA (95469)

6:12 AM PDT on October 21, 2014 (GMT -0700)
Gibson Lane | Change Station
CLOSE
Current Station
Personal Weather Station
Location: Potter Valley, CA
Elevation: 980 ft
Nearby Weather Stations

Elev 980 ft 39.32 °N, 123.10 °W | Updated 5 seconds ago

Mostly Cloudy
Mostly Cloudy
40.6 °F
Feels Like 41 °F
N
0.0
Wind Variable Wind from North
Gusts 2.0 mph

Today
High -- | Low -- °F
--% Chance of Precip.
Yesterday
High -- | Low -- °F
Precip. -- in
7:28 AM 6:24 PM
Waning Crescent, 6% visible
Pressure 30.11 in
Visibility 10.0 miles
Clouds Mostly Cloudy 500 ft
Overcast 1000 ft
Windchill 41 °F
Dew Point 40 °F
Humidity 96%
Rainfall 0.00 in
Snow Depth Not available.
UV 0 out of 12
Pollen 1.50 out of 12
Air Quality Not available.
Flu Activity Sporadic
METAR KUKI 211256Z AUTO 00000KT 10SM BKN005 OVC010 09/08 A3012 RMK AO2 SLP196 T00890078

More Conditions Fewer Conditions

Pressure 30.11 in
Visibility 10.0 miles
Clouds Mostly Cloudy 500 ft
Overcast 1000 ft
Windchill 41 °F
Dew Point 40 °F
Humidity 96%
Rainfall 0.00 in
Snow Depth Not available.
UV 0 out of 12
Pollen 1.50 out of 12
Air Quality Not available.
Flu Activity Sporadic
METAR KUKI 211256Z AUTO 00000KT 10SM BKN005 OVC010 09/08 A3012 RMK AO2 SLP196 T00890078

More Conditions Fewer Conditions

10-Day Weather Forecast

Almanac

Astronomy

Oct. 21, 2014 Rise Set
Actual Time 7:28 AM PDT 6:24 PM PDT
Civil Twilight 7:01 AM PDT 6:52 PM PDT
Nautical Twilight 6:30 AM PDT 7:23 PM PDT
Astronomical Twilight 5:58 AM PDT 7:54 PM PDT
Moon 5:18 AM PDT 5:21 PM PDT
Length of Visible Light 11h 50m
Length of Day
10h 56m
Tomorrow will be 2m 25s shorter.
Waning Crescent, 6% of the Moon is Illuminated
Today
Waning Crescent
Oct 23
New
Oct 30
First Quarter
Nov 6
Full
Nov 14
Last Quarter

Today's Extremes

State Highs State Lows

Community

WunderPhotos

Upload Photos

1,763,657 photos uploaded!

Nearby

Snow Depth

Station Depth Elevation
CSS Lab 0 in 6900 ft
Independence Lake 1 in 8450 ft
Independence Camp 0 in 7000 ft
Independence Creek 0 in 6500 ft
Squaw Valley 0 in 8200 ft

Earthquake Activity

City Distance Mag. Time & Date
Rio Dell, California 92 miles 4.2 7:24 AM PDT
2014-10-19
East Foothills, California 155 miles 2.6 8:16 AM PDT
2014-10-18
Minimum magnitude displayed is 2.5.

Coastal Water Temperatures

Place Temperature
No Stations Reporting

Nearby Weather Stations